createdAt,value
2023-05-05T00:00:15.790Z,68.08
2023-05-05T00:02:42.838Z,68.10
2023-05-05T00:05:09.656Z,68.89
2023-05-05T00:07:36.438Z,68.56
2023-05-05T00:10:03.382Z,69.20
2023-05-05T00:12:30.395Z,69.27
2023-05-05T00:14:59.510Z,69.16
2023-05-05T00:17:26.253Z,68.38
2023-05-05T00:19:52.967Z,69.07
2023-05-05T00:22:19.641Z,68.82
2023-05-05T00:24:46.257Z,68.68
2023-05-05T00:27:13.017Z,69.37
2023-05-05T00:29:41.984Z,69.49
2023-05-05T00:32:09.106Z,69.41
2023-05-05T00:34:35.707Z,69.23
2023-05-05T00:37:03.339Z,69.13
2023-05-05T00:39:34.550Z,68.96
2023-05-05T00:42:03.620Z,69.09
2023-05-05T00:44:38.153Z,69.29
2023-05-05T00:47:05.867Z,70.01
2023-05-05T00:49:34.706Z,69.37
2023-05-05T00:52:01.512Z,69.61
2023-05-05T00:54:28.460Z,69.77
2023-05-05T00:56:55.433Z,69.76
2023-05-05T00:59:22.442Z,69.46
2023-05-05T01:01:51.374Z,69.72
2023-05-05T01:04:17.966Z,69.82
2023-05-05T01:07:15.619Z,70.30
2023-05-05T01:10:11.014Z,69.96
2023-05-05T01:12:50.936Z,70.11
2023-05-05T01:15:23.439Z,70.04
2023-05-05T01:18:17.091Z,70.21
2023-05-05T01:20:53.602Z,70.20
2023-05-05T01:23:48.827Z,70.17
2023-05-05T01:26:36.728Z,70.45
2023-05-05T01:29:10.354Z,70.20
2023-05-05T01:31:44.824Z,70.27
2023-05-05T01:34:15.602Z,69.88
2023-05-05T01:36:47.246Z,70.17
2023-05-05T01:39:20.015Z,69.95
2023-05-05T01:41:49.278Z,69.99
2023-05-05T01:44:16.879Z,69.58
2023-05-05T01:46:43.542Z,70.20
2023-05-05T01:49:13.890Z,69.59
2023-05-05T01:51:42.320Z,69.56
2023-05-05T01:54:10.354Z,69.12
2023-05-05T01:56:40.223Z,69.87
2023-05-05T01:59:07.856Z,69.80
2023-05-05T02:01:39.392Z,69.68
2023-05-05T02:04:09.809Z,69.42
2023-05-05T02:06:39.707Z,69.83
2023-05-05T02:09:08.455Z,69.41
2023-05-05T02:11:38.632Z,69.72
2023-05-05T02:14:07.932Z,70.04
2023-05-05T02:16:37.438Z,70.39
2023-05-05T02:19:07.774Z,70.08
2023-05-05T02:21:34.669Z,70.49
2023-05-05T02:24:01.791Z,70.24
2023-05-05T02:26:33.916Z,70.16
2023-05-05T02:29:05.690Z,70.35
2023-05-05T02:31:39.399Z,70.45
2023-05-05T02:34:09.239Z,71.11
2023-05-05T02:36:39.416Z,70.71
2023-05-05T02:39:14.452Z,71.23
2023-05-05T02:41:42.987Z,71.60
2023-05-05T02:44:12.914Z,71.62
2023-05-05T02:46:39.917Z,71.22
2023-05-05T02:49:06.633Z,71.12
2023-05-05T02:51:33.673Z,71.14
2023-05-05T02:54:01.295Z,71.39
2023-05-05T02:56:44.152Z,71.80
2023-05-05T02:59:19.550Z,71.93
2023-05-05T03:01:53.265Z,71.71
2023-05-05T03:04:43.143Z,71.26
2023-05-05T03:07:21.090Z,71.16
2023-05-05T03:10:03.296Z,71.62
2023-05-05T03:12:46.106Z,71.73
2023-05-05T03:15:14.225Z,71.25
2023-05-05T03:17:43.081Z,71.30
2023-05-05T03:20:11.291Z,70.89
2023-05-05T03:22:38.396Z,70.71
2023-05-05T03:25:06.243Z,70.79
2023-05-05T03:27:32.899Z,70.89
2023-05-05T03:29:59.512Z,70.99
2023-05-05T03:32:26.249Z,70.84
2023-05-05T03:34:52.857Z,71.10
2023-05-05T03:37:22.033Z,70.57
2023-05-05T03:39:50.868Z,70.78
2023-05-05T03:42:19.881Z,70.91
2023-05-05T03:44:46.520Z,70.55
2023-05-05T03:47:13.073Z,70.44
2023-05-05T03:49:39.705Z,70.91
2023-05-05T03:52:06.325Z,70.27
2023-05-05T03:54:35.167Z,70.74
2023-05-05T03:57:02.530Z,70.11
2023-05-05T03:59:29.150Z,69.89
2023-05-05T04:01:55.897Z,70.34
2023-05-05T04:04:25.180Z,70.38
2023-05-05T04:06:51.758Z,70.23
2023-05-05T04:09:18.369Z,70.74
2023-05-05T04:11:44.957Z,70.58
2023-05-05T04:14:11.668Z,70.25
2023-05-05T04:16:38.317Z,70.19
2023-05-05T04:19:04.895Z,70.22
2023-05-05T04:21:31.575Z,70.33
2023-05-05T04:23:58.804Z,70.20
2023-05-05T04:26:27.862Z,70.17
2023-05-05T04:28:55.785Z,70.77
2023-05-05T04:31:22.443Z,69.96
2023-05-05T04:33:49.122Z,70.71
2023-05-05T04:36:15.856Z,70.08
2023-05-05T04:38:44.733Z,69.80
2023-05-05T04:41:11.887Z,70.50
2023-05-05T04:43:38.569Z,71.02
2023-05-05T04:46:05.382Z,71.27
2023-05-05T04:48:32.137Z,71.51
2023-05-05T04:50:58.834Z,70.84
2023-05-05T04:53:25.490Z,71.07
2023-05-05T04:55:54.352Z,71.85
2023-05-05T04:58:21.006Z,72.07
2023-05-05T05:00:49.812Z,71.40
2023-05-05T05:03:16.552Z,71.96
2023-05-05T05:05:43.282Z,71.67
2023-05-05T05:08:10.370Z,71.73
2023-05-05T05:10:37.025Z,72.05
2023-05-05T05:13:03.652Z,71.73
2023-05-05T05:15:30.531Z,72.18
2023-05-05T05:17:57.179Z,71.77
2023-05-05T05:20:23.855Z,71.71
2023-05-05T05:22:50.495Z,71.58
2023-05-05T05:25:17.220Z,71.56
2023-05-05T05:27:43.786Z,71.38
2023-05-05T05:30:10.803Z,71.13
2023-05-05T05:32:37.469Z,70.96
2023-05-05T05:35:06.842Z,71.63
2023-05-05T05:37:34.641Z,70.79
2023-05-05T05:40:01.231Z,71.52
2023-05-05T05:42:28.048Z,71.40
2023-05-05T05:44:58.739Z,71.14
2023-05-05T05:47:25.861Z,70.92
2023-05-05T05:49:52.639Z,70.86
2023-05-05T05:52:19.342Z,70.80
2023-05-05T05:54:45.950Z,70.60
2023-05-05T05:57:12.588Z,70.19
2023-05-05T05:59:39.180Z,69.86
2023-05-05T06:02:05.915Z,69.38
2023-05-05T06:04:32.751Z,69.98
2023-05-05T06:06:59.434Z,68.88
2023-05-05T06:09:26.231Z,68.58
2023-05-05T06:11:55.052Z,68.80
2023-05-05T06:14:21.684Z,68.73
2023-05-05T06:16:48.337Z,68.18
2023-05-05T06:19:15.007Z,67.88
2023-05-05T06:21:44.050Z,68.00
2023-05-05T06:24:10.750Z,67.53
2023-05-05T06:26:37.378Z,67.96
2023-05-05T06:29:04.148Z,67.59
2023-05-05T06:31:33.365Z,67.79
2023-05-05T06:34:00.003Z,67.07
2023-05-05T06:36:32.362Z,67.81
2023-05-05T06:38:59.087Z,67.60
2023-05-05T06:41:27.952Z,67.02
2023-05-05T06:43:54.617Z,66.57
2023-05-05T06:46:21.472Z,65.66
2023-05-05T06:48:50.808Z,65.50
2023-05-05T06:51:17.716Z,65.00
2023-05-05T06:53:44.390Z,65.32
2023-05-05T06:56:13.291Z,64.73
2023-05-05T06:58:44.774Z,64.56
2023-05-05T07:01:11.418Z,64.48
2023-05-05T07:03:38.154Z,63.91
2023-05-05T07:06:05.002Z,63.63
2023-05-05T07:08:31.738Z,63.38
2023-05-05T07:10:58.382Z,63.36
2023-05-05T07:13:25.025Z,62.74
2023-05-05T07:15:54.216Z,62.19
2023-05-05T07:18:21.275Z,62.22
2023-05-05T07:20:49.312Z,61.61
2023-05-05T07:23:15.954Z,61.30
2023-05-05T07:25:42.779Z,60.65
2023-05-05T07:28:09.547Z,60.56
2023-05-05T07:30:36.543Z,60.33
2023-05-05T07:33:03.918Z,60.30
2023-05-05T07:35:30.761Z,60.17
2023-05-05T07:38:02.275Z,60.05
2023-05-05T07:40:28.921Z,59.52
2023-05-05T07:42:57.961Z,58.47
2023-05-05T07:45:27.060Z,58.21
2023-05-05T07:47:53.770Z,58.28
2023-05-05T07:50:20.800Z,57.74
2023-05-05T07:52:51.746Z,57.18
2023-05-05T07:55:25.291Z,56.80
2023-05-05T07:57:52.001Z,55.80
2023-05-05T08:00:19.675Z,54.93
2023-05-05T08:02:48.676Z,54.24
2023-05-05T08:05:18.162Z,53.82
2023-05-05T08:07:44.881Z,53.91
2023-05-05T08:10:12.604Z,53.37
2023-05-05T08:12:40.494Z,53.37
2023-05-05T08:15:12.305Z,53.29
2023-05-05T08:17:48.833Z,53.43
2023-05-05T08:20:19.456Z,53.36
2023-05-05T08:22:46.731Z,53.33
2023-05-05T08:25:18.139Z,53.77
2023-05-05T08:27:47.198Z,53.74
2023-05-05T08:30:19.588Z,53.77
2023-05-05T08:32:47.031Z,53.76
2023-05-05T08:35:13.988Z,54.09
2023-05-05T08:37:40.925Z,54.83
2023-05-05T08:40:08.222Z,54.28
2023-05-05T08:42:39.078Z,54.50
2023-05-05T08:45:10.010Z,54.47
2023-05-05T08:47:38.296Z,54.71
2023-05-05T08:50:06.068Z,54.94
2023-05-05T08:52:40.427Z,54.79
2023-05-05T08:55:33.369Z,55.10
2023-05-05T08:58:03.200Z,54.87
2023-05-05T09:00:31.037Z,55.13
2023-05-05T09:02:59.103Z,54.80
2023-05-05T09:05:27.221Z,54.54
2023-05-05T09:07:56.563Z,54.52
2023-05-05T09:10:24.806Z,54.75
2023-05-05T09:12:51.867Z,54.50
2023-05-05T09:15:18.579Z,55.00
2023-05-05T09:17:45.574Z,55.18
2023-05-05T09:20:14.282Z,54.77
2023-05-05T09:22:47.658Z,55.27
2023-05-05T09:25:17.138Z,55.70
2023-05-05T09:27:48.971Z,55.43
2023-05-05T09:30:18.040Z,55.43
2023-05-05T09:32:53.075Z,55.84
2023-05-05T09:35:24.018Z,56.27
2023-05-05T09:37:50.802Z,56.77
2023-05-05T09:40:19.143Z,57.51
2023-05-05T09:42:46.054Z,57.23
2023-05-05T09:45:18.745Z,57.43
2023-05-05T09:47:49.265Z,57.64
2023-05-05T09:50:19.205Z,57.25
2023-05-05T09:53:02.248Z,57.28
2023-05-05T09:55:31.299Z,57.06
2023-05-05T09:58:16.972Z,56.50
2023-05-05T10:00:46.644Z,56.89
2023-05-05T10:03:13.763Z,57.21
2023-05-05T10:05:51.917Z,56.88
2023-05-05T10:08:23.205Z,56.83
2023-05-05T10:10:54.470Z,56.64
2023-05-05T10:13:23.463Z,56.93
2023-05-05T10:15:53.455Z,56.36
2023-05-05T10:18:28.424Z,56.33
2023-05-05T10:21:05.008Z,56.07
2023-05-05T10:23:56.014Z,55.46
2023-05-05T10:26:26.939Z,55.31
2023-05-05T10:28:56.121Z,54.66
2023-05-05T10:31:52.321Z,53.64
2023-05-05T10:34:40.612Z,53.23
2023-05-05T10:37:07.830Z,53.11
2023-05-05T10:39:36.642Z,53.32
2023-05-05T10:42:05.656Z,52.49
2023-05-05T10:44:33.446Z,51.41
2023-05-05T10:47:03.834Z,51.13
2023-05-05T10:49:59.002Z,50.17
2023-05-05T10:52:54.074Z,50.05
2023-05-05T10:55:35.892Z,50.42
2023-05-05T10:58:02.463Z,49.95
2023-05-05T11:00:43.455Z,51.49
2023-05-05T11:03:18.685Z,53.91
2023-05-05T11:06:03.507Z,55.65
2023-05-05T11:08:31.252Z,56.09
2023-05-05T11:11:01.054Z,58.11
2023-05-05T11:13:28.240Z,58.85
2023-05-05T11:15:56.768Z,59.69
2023-05-05T11:18:36.525Z,59.59
2023-05-05T11:21:17.379Z,59.73
2023-05-05T11:23:53.517Z,58.87
2023-05-05T11:26:50.400Z,57.90
2023-05-05T11:29:17.358Z,57.04
2023-05-05T11:31:43.918Z,56.71
2023-05-05T11:34:27.946Z,55.64
2023-05-05T11:37:02.346Z,55.68
2023-05-05T11:39:58.783Z,54.99
2023-05-05T11:42:31.317Z,54.53
2023-05-05T11:44:57.992Z,54.70
2023-05-05T11:47:28.415Z,55.21
2023-05-05T11:50:17.501Z,53.67
2023-05-05T11:52:47.320Z,53.56
2023-05-05T11:55:22.148Z,52.31
2023-05-05T11:57:48.980Z,52.60
2023-05-05T12:00:19.233Z,51.98
2023-05-05T12:02:46.271Z,51.86
2023-05-05T12:05:19.698Z,51.52
2023-05-05T12:07:46.349Z,52.20
2023-05-05T12:10:13.032Z,53.30
2023-05-05T12:12:40.898Z,55.21
2023-05-05T12:15:10.631Z,55.47
2023-05-05T12:17:42.644Z,55.60
2023-05-05T12:20:11.121Z,55.69
2023-05-05T12:22:38.985Z,54.80
2023-05-05T12:25:07.878Z,54.35
2023-05-05T12:27:35.526Z,54.38
2023-05-05T12:30:16.664Z,54.35
2023-05-05T12:32:44.762Z,54.16
2023-05-05T12:35:13.631Z,53.67
2023-05-05T12:37:40.765Z,53.96
2023-05-05T12:40:08.969Z,53.83
2023-05-05T12:42:41.975Z,53.60
2023-05-05T12:45:17.771Z,52.69
2023-05-05T12:47:44.945Z,52.47
2023-05-05T12:50:11.874Z,52.81
2023-05-05T12:52:45.344Z,52.24
2023-05-05T12:55:15.487Z,52.52
2023-05-05T12:58:09.513Z,52.61
2023-05-05T13:00:36.696Z,51.75
2023-05-05T13:03:04.796Z,51.66
2023-05-05T13:05:38.312Z,51.83
2023-05-05T13:08:05.069Z,51.07
2023-05-05T13:10:31.740Z,50.69
2023-05-05T13:12:58.567Z,50.48
2023-05-05T13:15:26.219Z,50.33
2023-05-05T13:18:03.452Z,50.61
2023-05-05T13:20:32.602Z,49.58
2023-05-05T13:23:01.556Z,49.96
2023-05-05T13:25:28.161Z,48.84
2023-05-05T13:27:54.760Z,48.97
2023-05-05T13:30:21.422Z,48.54
2023-05-05T13:32:48.165Z,49.03
2023-05-05T13:35:16.409Z,49.49
2023-05-05T13:37:44.384Z,49.05
2023-05-05T13:40:11.630Z,49.01
2023-05-05T13:42:40.616Z,49.41
2023-05-05T13:45:07.932Z,48.67
2023-05-05T13:47:35.330Z,48.73
2023-05-05T13:50:02.152Z,48.52
2023-05-05T13:52:29.879Z,48.67
2023-05-05T13:54:58.494Z,48.79
2023-05-05T13:57:25.494Z,49.05
2023-05-05T13:59:52.105Z,48.32
2023-05-05T14:02:18.663Z,48.59
2023-05-05T14:04:45.277Z,48.27
2023-05-05T14:07:11.997Z,48.38
2023-05-05T14:09:38.710Z,47.95
2023-05-05T14:12:06.233Z,47.67
2023-05-05T14:14:32.858Z,47.46
2023-05-05T14:17:01.676Z,47.62
2023-05-05T14:19:28.292Z,47.27
2023-05-05T14:21:55.031Z,47.43
2023-05-05T14:24:23.872Z,47.38
2023-05-05T14:26:50.529Z,47.52
2023-05-05T14:29:20.133Z,47.44
2023-05-05T14:31:46.827Z,48.00
2023-05-05T14:34:15.700Z,47.81
2023-05-05T14:36:44.625Z,47.53
2023-05-05T14:39:11.416Z,48.04
2023-05-05T14:41:38.025Z,48.12
2023-05-05T14:44:04.919Z,47.82
2023-05-05T14:46:34.270Z,47.48
2023-05-05T14:49:00.955Z,47.85
2023-05-05T14:51:27.514Z,47.77
2023-05-05T14:53:54.087Z,47.83
2023-05-05T14:56:22.773Z,48.46
2023-05-05T14:58:49.550Z,48.20
2023-05-05T15:01:16.725Z,48.17
2023-05-05T15:03:45.956Z,49.30
2023-05-05T15:06:15.206Z,49.33
2023-05-05T15:08:44.196Z,48.80
2023-05-05T15:11:10.866Z,48.72
2023-05-05T15:13:40.389Z,49.04
2023-05-05T15:16:10.297Z,48.74
2023-05-05T15:18:36.944Z,48.75
2023-05-05T15:21:06.563Z,48.85
2023-05-05T15:23:33.268Z,49.17
2023-05-05T15:26:02.068Z,49.46
2023-05-05T15:28:28.661Z,49.23
2023-05-05T15:30:58.228Z,49.40
2023-05-05T15:33:24.814Z,49.32
2023-05-05T15:35:51.447Z,49.37
2023-05-05T15:38:20.380Z,48.91
2023-05-05T15:40:49.549Z,48.42
2023-05-05T15:43:16.917Z,48.76
2023-05-05T15:45:43.768Z,47.86
2023-05-05T15:48:10.589Z,48.51
2023-05-05T15:50:39.584Z,48.55
2023-05-05T15:53:06.281Z,48.40
2023-05-05T15:55:32.921Z,48.82
2023-05-05T15:57:59.570Z,48.98
2023-05-05T16:00:26.404Z,48.65
2023-05-05T16:02:55.438Z,48.90
2023-05-05T16:05:23.133Z,48.67
2023-05-05T16:07:53.673Z,49.17
2023-05-05T16:10:20.642Z,48.91
2023-05-05T16:12:50.093Z,49.32
2023-05-05T16:15:16.770Z,49.11
2023-05-05T16:17:43.444Z,49.52
2023-05-05T16:20:12.773Z,49.97
2023-05-05T16:22:39.445Z,50.21
2023-05-05T16:25:11.883Z,50.21
2023-05-05T16:27:38.564Z,49.90
2023-05-05T16:30:08.865Z,50.37
2023-05-05T16:32:35.538Z,50.34
2023-05-05T16:35:02.224Z,50.67
2023-05-05T16:37:28.848Z,50.63
2023-05-05T16:39:57.705Z,50.75
2023-05-05T16:42:24.307Z,50.58
2023-05-05T16:44:51.156Z,50.33
2023-05-05T16:47:17.781Z,50.72
2023-05-05T16:49:44.396Z,50.67
2023-05-05T16:52:13.556Z,50.92
2023-05-05T16:54:43.619Z,51.20
2023-05-05T16:57:10.368Z,51.29
2023-05-05T16:59:37.087Z,51.44
2023-05-05T17:02:06.096Z,51.56
2023-05-05T17:04:32.755Z,51.24
2023-05-05T17:06:59.324Z,51.09
2023-05-05T17:09:27.346Z,51.85
2023-05-05T17:11:53.949Z,51.99
2023-05-05T17:14:20.824Z,51.99
2023-05-05T17:16:47.482Z,52.05
2023-05-05T17:19:14.255Z,52.30
2023-05-05T17:21:42.923Z,52.56
2023-05-05T17:24:09.545Z,52.55
2023-05-05T17:26:36.141Z,53.00
2023-05-05T17:29:02.883Z,53.69
2023-05-05T17:31:29.527Z,54.09
2023-05-05T17:33:58.513Z,54.74
2023-05-05T17:36:25.125Z,55.73
2023-05-05T17:38:51.754Z,56.07
2023-05-05T17:41:23.131Z,56.32
2023-05-05T17:43:49.788Z,57.28
2023-05-05T17:46:16.484Z,57.27
2023-05-05T17:48:43.179Z,57.58
2023-05-05T17:51:09.881Z,57.66
2023-05-05T17:53:37.500Z,57.95
2023-05-05T17:56:05.576Z,58.41
2023-05-05T17:58:33.323Z,58.54
2023-05-05T18:01:02.481Z,59.17
2023-05-05T18:03:29.364Z,59.30
2023-05-05T18:06:02.360Z,59.32
2023-05-05T18:08:29.008Z,59.08
2023-05-05T18:10:57.858Z,59.77
2023-05-05T18:13:24.519Z,60.03
2023-05-05T18:15:51.149Z,60.04
2023-05-05T18:18:17.874Z,60.43
2023-05-05T18:20:44.502Z,60.46
2023-05-05T18:23:13.515Z,60.02
2023-05-05T18:25:42.390Z,60.37
2023-05-05T18:28:13.544Z,60.23
2023-05-05T18:30:40.141Z,60.44
2023-05-05T18:33:06.748Z,60.87
2023-05-05T18:35:33.456Z,60.65
2023-05-05T18:38:03.448Z,60.93
2023-05-05T18:40:32.271Z,60.50
2023-05-05T18:42:58.891Z,60.05
2023-05-05T18:45:25.571Z,60.39
2023-05-05T18:47:56.701Z,60.21
2023-05-05T18:50:23.391Z,60.14
2023-05-05T18:52:50.130Z,59.57
2023-05-05T18:55:17.036Z,59.57
2023-05-05T18:57:43.694Z,60.10
2023-05-05T19:00:11.036Z,60.18
2023-05-05T19:02:39.738Z,60.18
2023-05-05T19:05:07.271Z,60.50
2023-05-05T19:07:35.738Z,60.15
2023-05-05T19:10:04.713Z,60.61
2023-05-05T19:12:31.401Z,60.45
2023-05-05T19:15:00.396Z,60.39
2023-05-05T19:17:29.382Z,60.71
2023-05-05T19:19:56.096Z,60.90
2023-05-05T19:22:23.842Z,60.95
2023-05-05T19:24:52.893Z,61.07
2023-05-05T19:27:19.564Z,60.87
2023-05-05T19:29:49.167Z,61.29
2023-05-05T19:32:15.982Z,61.39
2023-05-05T19:34:42.995Z,61.15
2023-05-05T19:37:14.789Z,61.37
2023-05-05T19:39:44.354Z,61.66
2023-05-05T19:42:11.533Z,61.18
2023-05-05T19:44:40.796Z,62.19
2023-05-05T19:47:08.370Z,61.79
2023-05-05T19:49:37.772Z,61.89
2023-05-05T19:52:04.908Z,62.15
2023-05-05T19:54:31.545Z,61.85
2023-05-05T19:57:00.878Z,62.84
2023-05-05T19:59:29.935Z,62.29
2023-05-05T20:01:58.936Z,62.58
2023-05-05T20:04:25.610Z,63.03
2023-05-05T20:06:54.754Z,63.14
2023-05-05T20:09:21.769Z,63.37
2023-05-05T20:11:48.609Z,63.38
2023-05-05T20:14:15.281Z,63.51
2023-05-05T20:16:42.111Z,63.09
2023-05-05T20:19:08.757Z,63.15
2023-05-05T20:21:37.963Z,63.51
2023-05-05T20:24:05.206Z,63.52
2023-05-05T20:26:32.188Z,63.44
2023-05-05T20:28:58.819Z,63.61
2023-05-05T20:31:25.664Z,64.45
2023-05-05T20:33:52.329Z,64.32
2023-05-05T20:36:18.964Z,64.96
2023-05-05T20:38:52.006Z,64.44
2023-05-05T20:41:18.786Z,64.75
2023-05-05T20:43:45.539Z,65.27
2023-05-05T20:46:13.414Z,65.20
2023-05-05T20:48:42.411Z,65.18
2023-05-05T20:51:09.815Z,65.44
2023-05-05T20:53:36.387Z,64.95
2023-05-05T20:56:06.465Z,64.95
2023-05-05T20:58:34.663Z,65.48
2023-05-05T21:01:02.260Z,65.12
2023-05-05T21:03:31.221Z,65.36
2023-05-05T21:05:57.852Z,65.16
2023-05-05T21:08:24.486Z,65.82
2023-05-05T21:10:51.075Z,65.34
2023-05-05T21:13:20.271Z,65.91
2023-05-05T21:15:51.840Z,66.11
2023-05-05T21:18:21.566Z,65.82
2023-05-05T21:20:50.682Z,66.23
2023-05-05T21:23:17.294Z,65.79
2023-05-05T21:25:46.392Z,66.43
2023-05-05T21:28:15.368Z,65.69
2023-05-05T21:30:42.222Z,66.32
2023-05-05T21:33:18.371Z,66.66
2023-05-05T21:35:44.993Z,66.13
2023-05-05T21:38:14.111Z,66.46
2023-05-05T21:40:43.087Z,66.25
2023-05-05T21:43:09.733Z,66.52
2023-05-05T21:45:36.399Z,66.22
2023-05-05T21:48:03.112Z,66.67
2023-05-05T21:50:29.779Z,66.62
2023-05-05T21:52:58.602Z,66.36
2023-05-05T21:55:25.424Z,67.02
2023-05-05T21:57:52.114Z,67.02
2023-05-05T22:00:21.253Z,67.22
2023-05-05T22:02:47.860Z,66.93
2023-05-05T22:05:16.943Z,66.92
2023-05-05T22:07:43.642Z,67.12
2023-05-05T22:10:10.654Z,67.67
2023-05-05T22:12:37.570Z,67.89
2023-05-05T22:15:04.533Z,68.06
2023-05-05T22:17:31.191Z,67.80
2023-05-05T22:19:57.831Z,68.08
2023-05-05T22:22:26.770Z,68.43
2023-05-05T22:24:55.780Z,68.62
2023-05-05T22:27:25.338Z,68.78
2023-05-05T22:29:51.959Z,68.89
2023-05-05T22:32:20.724Z,68.65
2023-05-05T22:34:47.738Z,68.11
2023-05-05T22:37:14.449Z,68.42
2023-05-05T22:39:43.698Z,68.87
2023-05-05T22:42:10.311Z,68.63
2023-05-05T22:44:39.896Z,68.76
2023-05-05T22:47:09.410Z,69.03
2023-05-05T22:49:36.163Z,69.09
2023-05-05T22:52:02.797Z,68.61
2023-05-05T22:54:31.964Z,68.50
2023-05-05T22:56:58.639Z,68.80
2023-05-05T22:59:27.696Z,68.63
2023-05-05T23:01:54.487Z,68.92
2023-05-05T23:04:23.392Z,68.51
2023-05-05T23:06:54.855Z,69.17
2023-05-05T23:09:21.474Z,69.12
2023-05-05T23:11:48.059Z,68.77
2023-05-05T23:14:14.778Z,68.67
2023-05-05T23:16:41.473Z,69.35
2023-05-05T23:19:08.185Z,69.51
2023-05-05T23:21:41.909Z,69.33
2023-05-05T23:24:16.313Z,69.20
2023-05-05T23:26:42.926Z,68.82
2023-05-05T23:29:09.528Z,69.59
2023-05-05T23:31:36.206Z,69.65
2023-05-05T23:34:02.796Z,69.57
2023-05-05T23:36:29.566Z,69.16
2023-05-05T23:38:56.176Z,69.13
2023-05-05T23:41:23.014Z,69.06
2023-05-05T23:43:49.614Z,69.30
2023-05-05T23:46:16.631Z,69.81
2023-05-05T23:48:43.323Z,69.46
2023-05-05T23:51:09.937Z,70.00
2023-05-05T23:53:36.592Z,69.83
2023-05-05T23:56:05.677Z,69.97
2023-05-05T23:58:32.271Z,70.46
